Time;durP1;ratioP1;P1;durP2;ratioP2;P2;SDS_P1;SDS_P2;PMS_P1;PMS_P2;Temp;Humidity;BMP_temperature;BMP_pressure;BME280_temperature;BME280_humidity;BME280_pressure;Samples;Min_cycle;Max_cycle;Signal;HPM_P1;HPM_P2
2021/04/30 00:01:12;;;;;;;15.48;8.23;;;;;;;12.57;64.07;95947.33;1651682;86;21539;-55
2021/04/30 00:03:40;;;;;;;12.70;7.55;;;;;;;12.44;63.82;95945.80;1651760;86;21158;-55
2021/04/30 00:06:08;;;;;;;13.10;8.08;;;;;;;12.26;64.22;95943.53;1668173;86;21103;-55
2021/04/30 00:08:38;;;;;;;16.70;9.35;;;;;;;12.12;64.09;95953.36;1699900;84;21188;-55
2021/04/30 00:11:07;;;;;;;15.48;8.75;;;;;;;11.83;64.63;95952.42;1700255;84;21093;-55
2021/04/30 00:13:37;;;;;;;14.13;6.65;;;;;;;11.57;65.52;95951.08;1700792;84;21184;-54
2021/04/30 00:16:06;;;;;;;9.88;5.70;;;;;;;11.48;66.24;95953.63;1701038;84;21276;-54
2021/04/30 00:18:34;;;;;;;8.73;6.22;;;;;;;11.46;66.77;95950.34;1700961;84;21196;-54
2021/04/30 00:21:04;;;;;;;7.10;4.60;;;;;;;11.44;66.83;95954.36;1618357;86;21559;-55
2021/04/30 00:23:33;;;;;;;7.97;4.70;;;;;;;11.45;66.94;95953.42;1615416;88;21385;-55
2021/04/30 00:26:04;;;;;;;7.72;3.83;;;;;;;11.52;67.02;95948.05;1642665;87;21674;-55
2021/04/30 00:28:33;;;;;;;4.42;3.83;;;;;;;11.62;66.96;95948.58;1675690;84;21387;-55
2021/04/30 00:31:01;;;;;;;6.12;4.50;;;;;;;11.75;66.67;95951.28;1705777;84;21089;-55
2021/04/30 00:33:29;;;;;;;7.83;4.47;;;;;;;11.86;66.21;95947.78;1676672;85;21178;-55
2021/04/30 00:35:58;;;;;;;7.17;5.28;;;;;;;11.93;65.78;95952.00;1648606;85;21133;-56
2021/04/30 00:38:25;;;;;;;8.75;5.83;;;;;;;11.93;65.74;95952.00;1641457;87;21140;-55
2021/04/30 00:40:53;;;;;;;16.55;10.23;;;;;;;11.88;66.08;95952.36;1669844;86;21244;-55
2021/04/30 00:43:21;;;;;;;20.15;12.88;;;;;;;11.87;66.26;95940.31;1671892;84;21110;-54
2021/04/30 00:45:52;;;;;;;17.10;8.37;;;;;;;11.93;66.32;95947.62;1672580;84;21102;-54
2021/04/30 00:48:21;;;;;;;19.40;9.28;;;;;;;11.91;66.47;95948.69;1669856;85;21816;-54
2021/04/30 00:50:50;;;;;;;18.40;10.00;;;;;;;11.93;66.67;95945.02;1666815;84;21115;-54
2021/04/30 00:53:17;;;;;;;17.10;10.20;;;;;;;12.02;66.39;95947.29;1705991;84;21219;-55
2021/04/30 00:55:46;;;;;;;15.05;8.48;;;;;;;12.09;66.28;95944.52;1705965;84;21140;-54
2021/04/30 00:58:14;;;;;;;17.15;8.95;;;;;;;12.20;66.25;95947.95;1705926;84;21144;-54
2021/04/30 01:00:42;;;;;;;12.07;9.20;;;;;;;12.28;66.11;95942.91;1676659;83;21114;-55
2021/04/30 01:03:10;;;;;;;16.33;7.73;;;;;;;12.33;65.78;95946.77;1670106;86;21124;-55
2021/04/30 01:05:38;;;;;;;16.25;9.58;;;;;;;12.30;65.64;95951.39;1693688;84;21227;-55
2021/04/30 01:08:06;;;;;;;16.62;9.53;;;;;;;12.25;65.84;95954.42;1703844;84;21136;-55
2021/04/30 01:10:35;;;;;;;11.80;8.28;;;;;;;12.25;66.03;95956.17;1703218;84;21175;-55
2021/04/30 01:13:04;;;;;;;12.10;7.33;;;;;;;12.28;66.09;95955.42;1703458;84;21525;-55
2021/04/30 01:15:31;;;;;;;13.50;8.10;;;;;;;12.33;66.00;95958.92;1696963;84;21510;-54
2021/04/30 01:18:01;;;;;;;11.73;8.63;;;;;;;12.35;65.90;95971.31;1672059;85;21279;-54
2021/04/30 01:20:29;;;;;;;15.40;6.97;;;;;;;12.37;66.02;95975.09;1690542;84;21104;-55
2021/04/30 01:22:57;;;;;;;13.78;7.55;;;;;;;12.41;66.00;95979.08;1703230;84;21609;-55
2021/04/30 01:25:28;;;;;;;8.88;5.10;;;;;;;12.48;66.02;95982.77;1673205;84;21606;-54
2021/04/30 01:27:55;;;;;;;11.75;5.45;;;;;;;12.54;65.88;95985.34;1672152;84;21661;-55
2021/04/30 01:30:27;;;;;;;7.15;4.72;;;;;;;12.60;65.77;95999.92;1672338;85;21397;-55
2021/04/30 01:32:55;;;;;;;6.90;4.67;;;;;;;12.65;65.64;95999.53;1672323;84;21157;-55
2021/04/30 01:35:30;;;;;;;7.25;4.03;;;;;;;12.67;65.53;95992.40;1689963;84;21176;-55
2021/04/30 01:37:59;;;;;;;6.83;4.42;;;;;;;12.68;65.75;95992.27;1671687;85;21080;-54
2021/04/30 01:40:29;;;;;;;;;;;;;;;12.76;65.74;95981.64;1688673;85;21240;-55
2021/04/30 01:43:13;;;;;;;8.65;4.15;;;;;;;12.82;65.91;95978.00;1671965;85;21284;-54
2021/04/30 01:45:59;;;;;;;4.62;3.83;;;;;;;12.87;66.00;95971.91;1671974;85;21551;-55
2021/04/30 01:48:33;;;;;;;8.40;4.65;;;;;;;12.90;66.03;95968.22;1676073;85;21591;-55
2021/04/30 01:51:02;;;;;;;7.00;4.42;;;;;;;12.95;65.94;95970.41;1680904;85;21085;-54
2021/04/30 01:53:34;;;;;;;8.20;4.95;;;;;;;12.74;66.75;95966.64;1686277;85;21089;-54
2021/04/30 01:56:03;;;;;;;8.88;5.30;;;;;;;12.59;67.45;95969.64;1686188;85;21447;-54
2021/04/30 01:58:32;;;;;;;8.75;4.97;;;;;;;12.61;67.67;95978.62;1686135;85;21518;-55
2021/04/30 02:01:00;;;;;;;4.87;4.35;;;;;;;12.70;67.71;95986.92;1686099;85;21090;-55
2021/04/30 02:03:28;;;;;;;4.42;4.03;;;;;;;12.81;67.62;95985.49;1686272;85;21165;-55
2021/04/30 02:05:56;;;;;;;5.47;3.83;;;;;;;12.93;67.57;95978.36;1663932;85;21182;-54
2021/04/30 02:08:24;;;;;;;4.47;3.62;;;;;;;13.03;67.30;95969.24;1685522;83;21427;-55
2021/04/30 02:10:54;;;;;;;3.98;3.40;;;;;;;13.16;67.04;95968.95;1686198;85;21097;-54
2021/04/30 02:13:22;;;;;;;5.72;3.25;;;;;;;13.25;67.04;95975.92;1686268;85;21082;-54
2021/04/30 02:15:53;;;;;;;4.30;3.52;;;;;;;13.34;66.96;95982.94;1686240;85;21925;-54
2021/04/30 02:18:23;;;;;;;4.90;2.92;;;;;;;13.43;66.96;95989.08;1686293;85;21515;-54
2021/04/30 02:20:50;;;;;;;;;;;;;;;13.48;66.87;95987.36;1667511;85;21384;-54
2021/04/30 02:23:19;;;;;;;6.70;4.03;;;;;;;13.48;66.93;95980.84;1657899;86;20223;-54
2021/04/30 02:25:47;;;;;;;5.30;3.65;;;;;;;13.43;67.19;95970.34;1658038;86;21138;-54
2021/04/30 02:28:15;;;;;;;5.72;3.17;;;;;;;13.41;67.67;95972.77;1659918;85;21161;-55
2021/04/30 02:30:43;;;;;;;2.65;2.45;;;;;;;13.36;68.00;95971.89;1658107;86;21520;-54
2021/04/30 02:33:11;;;;;;;2.77;2.58;;;;;;;13.32;68.29;95967.93;1658138;86;21255;-54
2021/04/30 02:35:43;;;;;;;4.03;2.67;;;;;;;13.26;68.69;95965.85;1657956;85;21859;-54
2021/04/30 02:38:12;;;;;;;4.58;3.20;;;;;;;13.20;69.03;95965.09;1658032;85;21149;-54
2021/04/30 02:40:42;;;;;;;3.98;2.85;;;;;;;13.11;69.30;95959.41;1657851;86;21099;-54
2021/04/30 02:43:13;;;;;;;3.67;2.80;;;;;;;13.02;69.50;95959.28;1657972;86;21090;-54
2021/04/30 02:45:42;;;;;;;3.60;2.58;;;;;;;12.95;70.03;95951.70;1661166;85;21389;-54
2021/04/30 02:48:13;;;;;;;3.65;2.40;;;;;;;12.89;70.07;95954.39;1686088;85;21062;-54
2021/04/30 02:50:42;;;;;;;2.90;2.40;;;;;;;12.87;70.21;95951.56;1666979;85;21114;-54
2021/04/30 02:53:09;;;;;;;3.72;2.50;;;;;;;12.84;70.29;95939.63;1633587;86;21115;-54
2021/04/30 02:55:38;;;;;;;3.35;2.58;;;;;;;12.80;70.39;95947.88;1658341;85;21582;-54
2021/04/30 02:58:06;;;;;;;2.27;1.55;;;;;;;12.75;70.55;95944.38;1658131;86;21401;-54
2021/04/30 03:00:34;;;;;;;3.12;1.87;;;;;;;12.70;70.21;95942.67;1657840;86;21234;-54
2021/04/30 03:03:02;;;;;;;4.78;1.82;;;;;;;12.71;70.20;95944.30;1657883;86;21083;-54
2021/04/30 03:05:30;;;;;;;2.83;2.12;;;;;;;12.73;70.07;95948.07;1660962;85;21534;-54
2021/04/30 03:07:58;;;;;;;2.72;1.85;;;;;;;12.75;69.93;95942.27;1661730;85;21169;-54
2021/04/30 03:10:26;;;;;;;2.35;1.82;;;;;;;12.79;69.84;95943.13;1672862;85;22150;-54
2021/04/30 03:12:54;;;;;;;2.70;1.98;;;;;;;12.80;69.77;95947.88;1672954;85;21636;-54
2021/04/30 03:15:22;;;;;;;2.02;1.87;;;;;;;12.79;69.86;95952.24;1672849;85;21522;-54
2021/04/30 03:17:51;;;;;;;3.50;1.82;;;;;;;12.79;69.92;95953.55;1673070;85;21524;-54
2021/04/30 03:20:19;;;;;;;1.70;1.60;;;;;;;12.82;69.96;95951.16;1662795;84;21076;-55
2021/04/30 03:22:47;;;;;;;3.50;1.90;;;;;;;12.86;69.88;95944.24;1695907;84;22214;-55
2021/04/30 03:25:16;;;;;;;;;;;;;;;12.91;69.79;95953.41;1647906;85;21181;-55
2021/04/30 03:27:44;;;;;;;2.40;2.10;;;;;;;12.91;69.78;95949.05;1676594;84;20275;-57
2021/04/30 03:30:14;;;;;;;2.33;1.80;;;;;;;12.87;69.74;95941.96;1645631;87;21097;-55
2021/04/30 03:32:43;;;;;;;5.47;2.50;;;;;;;12.84;69.74;95943.54;1645569;87;21549;-55
2021/04/30 03:35:16;;;;;;;6.95;3.15;;;;;;;12.83;69.62;95945.01;1673033;84;22397;-55
2021/04/30 03:37:43;;;;;;;3.62;2.75;;;;;;;12.82;69.59;95940.75;1681476;85;21209;-55
2021/04/30 03:40:14;;;;;;;4.95;3.15;;;;;;;12.74;69.78;95944.03;1703946;84;21097;-55
2021/04/30 03:42:43;;;;;;;5.12;3.22;;;;;;;12.69;69.89;95938.42;1675526;84;21499;-54
2021/04/30 03:45:13;;;;;;;5.50;3.92;;;;;;;12.73;69.85;95948.07;1672835;85;21082;-55
2021/04/30 03:47:41;;;;;;;4.42;2.72;;;;;;;12.83;69.81;95941.91;1680479;84;21393;-55
2021/04/30 03:50:10;;;;;;;2.92;2.33;;;;;;;13.16;69.26;95951.54;1677047;84;21110;-55
2021/04/30 03:52:37;;;;;;;;;;;;;;;13.51;67.74;95948.80;1684334;85;21148;-55
2021/04/30 03:55:08;;;;;;;4.37;3.15;;;;;;;13.64;67.21;95952.40;1681869;85;20242;-55
2021/04/30 03:57:36;;;;;;;5.00;3.20;;;;;;;13.69;66.94;95950.67;1681890;85;21131;-56
2021/04/30 04:00:06;;;;;;;4.40;3.00;;;;;;;13.76;66.77;95953.03;1666183;85;21286;-55
2021/04/30 04:02:47;;;;;;;4.92;3.90;;;;;;;14.16;66.03;95954.48;1888692;76;28039;-55
2021/04/30 04:05:14;;;;;;;7.72;3.60;;;;;;;14.51;65.08;95956.33;1764051;80;21065;-55
2021/04/30 04:07:42;;;;;;;4.30;3.10;;;;;;;15.05;63.70;95947.20;1839070;78;21853;-55
2021/04/30 04:10:12;;;;;;;5.33;3.62;;;;;;;15.54;61.42;95952.41;1838824;78;21544;-56
2021/04/30 04:12:41;;;;;;;5.28;4.47;;;;;;;15.71;60.97;95945.50;1838985;78;21498;-55
2021/04/30 04:15:09;;;;;;;4.70;4.30;;;;;;;15.62;60.64;95954.61;1839033;78;21101;-55
2021/04/30 04:17:37;;;;;;;8.73;4.75;;;;;;;15.51;60.69;95950.95;1840399;77;26369;-56
2021/04/30 04:22:46;;;;;;;6.47;4.75;;;;;;;15.73;60.13;95950.89;1671386;85;21165;-56
2021/04/30 04:25:14;;;;;;;4.67;4.03;;;;;;;16.20;59.48;95947.03;1671714;85;21107;-55
2021/04/30 04:27:42;;;;;;;8.63;6.90;;;;;;;16.55;58.43;95943.84;1690639;84;21155;-55
2021/04/30 04:30:13;;;;;;;9.03;4.80;;;;;;;16.60;58.04;95942.86;1701333;83;21120;-57
2021/04/30 04:32:41;;;;;;;36.13;16.75;;;;;;;16.63;57.72;95949.09;1701289;83;22163;-56
2021/04/30 04:35:10;;;;;;;20.97;7.33;;;;;;;16.82;57.38;95951.06;1694392;84;21606;-56
2021/04/30 04:37:39;;;;;;;14.23;5.05;;;;;;;17.16;56.67;95947.00;1730258;80;21214;-56
2021/04/30 04:40:09;;;;;;;;;;;;;;;17.71;55.18;95944.61;1756266;80;21199;-55
2021/04/30 04:42:36;;;;;;;13.05;5.17;;;;;;;18.15;54.08;95944.95;1754380;80;20239;-55
2021/04/30 04:45:08;;;;;;;10.75;3.98;;;;;;;18.47;52.86;95944.95;1754896;80;21194;-55
2021/04/30 04:47:36;;;;;;;7.15;3.37;;;;;;;18.72;50.82;95945.13;1781466;79;21160;-55
2021/04/30 04:50:06;;;;;;;6.22;3.00;;;;;;;18.70;50.80;95942.34;1767553;80;22304;-56
2021/04/30 04:52:34;;;;;;;5.45;3.00;;;;;;;18.66;50.11;95943.70;1754012;80;21194;-57
2021/04/30 04:55:05;;;;;;;4.05;2.85;;;;;;;18.53;50.87;95948.21;1773830;80;21536;-54
2021/04/30 04:57:33;;;;;;;9.60;3.35;;;;;;;18.78;50.52;95950.17;1776123;79;21371;-56
2021/04/30 05:00:01;;;;;;;5.15;2.87;;;;;;;19.09;49.76;95946.18;1749068;80;21144;-54
2021/04/30 05:02:30;;;;;;;;;;;;;;;19.13;48.92;95948.80;1764344;80;21187;-55
2021/04/30 05:04:58;;;;;;;2.60;2.20;;;;;;;19.08;48.72;95948.51;1756740;80;22741;-56
2021/04/30 05:07:26;;;;;;;3.95;2.70;;;;;;;19.01;49.49;95938.36;1780125;80;21155;-55
2021/04/30 05:09:56;;;;;;;3.90;2.40;;;;;;;18.97;49.46;95948.12;1780744;80;21358;-55
2021/04/30 05:12:24;;;;;;;3.70;2.62;;;;;;;18.81;50.47;95945.88;1781217;80;22370;-55
2021/04/30 05:14:53;;;;;;;4.05;2.50;;;;;;;18.66;50.54;95939.77;1771619;79;21504;-56
2021/04/30 05:17:21;;;;;;;5.67;2.70;;;;;;;18.02;51.62;95925.81;1750278;80;21096;-54
2021/04/30 05:19:50;;;;;;;3.08;2.72;;;;;;;17.43;53.22;95927.95;1754796;81;22004;-55
2021/04/30 05:22:25;;;;;;;5.22;2.90;;;;;;;17.06;54.15;95926.20;1761806;80;21353;-55
2021/04/30 05:24:53;;;;;;;4.03;2.47;;;;;;;17.02;54.75;95926.22;1763471;80;21138;-55
2021/04/30 05:27:21;;;;;;;3.03;2.73;;;;;;;17.21;54.57;95936.03;1762647;80;21562;-55
2021/04/30 05:29:49;;;;;;;4.85;2.83;;;;;;;17.61;53.53;95924.62;1761859;80;21058;-56
2021/04/30 05:32:22;;;;;;;2.35;2.15;;;;;;;17.84;52.84;95929.14;1749781;81;21074;-56
2021/04/30 05:34:52;;;;;;;4.75;2.60;;;;;;;17.89;52.68;95927.36;1761543;81;22039;-55
2021/04/30 05:37:23;;;;;;;14.85;10.35;;;;;;;17.89;52.34;95929.98;1745575;81;21158;-55
2021/04/30 05:39:53;;;;;;;22.40;11.90;;;;;;;17.71;52.28;95934.11;1698272;83;21579;-55
2021/04/30 05:42:22;;;;;;;7.90;3.67;;;;;;;17.36;53.07;95933.05;1706819;82;21159;-54
2021/04/30 05:44:49;;;;;;;5.50;3.00;;;;;;;17.08;53.57;95932.09;1704719;83;21147;-55
2021/04/30 05:47:20;;;;;;;4.72;2.72;;;;;;;16.83;54.14;95940.92;1726341;82;21195;-56
2021/04/30 05:49:50;;;;;;;3.50;2.50;;;;;;;16.66;54.75;95941.38;1700556;83;21191;-56
2021/04/30 05:52:19;;;;;;;3.17;2.65;;;;;;;16.55;54.87;95939.91;1681736;82;21123;-56
2021/04/30 05:54:49;;;;;;;3.80;2.47;;;;;;;16.36;55.31;95946.23;1727653;83;21136;-56
2021/04/30 05:57:18;;;;;;;4.20;2.42;;;;;;;16.21;55.75;95940.80;1726595;83;21077;-55
2021/04/30 05:59:47;;;;;;;4.03;2.55;;;;;;;16.03;56.34;95934.86;1726021;81;21585;-55
2021/04/30 06:02:15;;;;;;;3.47;2.70;;;;;;;15.88;56.83;95945.92;1725592;81;21648;-56
2021/04/30 06:04:43;;;;;;;5.80;2.27;;;;;;;15.82;56.96;95941.30;1699766;83;21536;-55
2021/04/30 06:07:12;;;;;;;2.80;2.60;;;;;;;15.75;56.94;95945.50;1698102;83;21140;-54
2021/04/30 06:09:41;;;;;;;6.37;2.12;;;;;;;15.70;56.99;95938.62;1714048;83;21135;-55
2021/04/30 06:12:10;;;;;;;9.23;2.20;;;;;;;15.64;57.05;95936.95;1725573;81;21368;-55
2021/04/30 06:14:39;;;;;;;2.37;2.00;;;;;;;15.56;57.04;95941.30;1727308;81;21159;-56
2021/04/30 06:17:08;;;;;;;2.22;1.92;;;;;;;15.46;57.20;95946.67;1727038;83;21029;-57
2021/04/30 06:19:36;;;;;;;2.72;1.80;;;;;;;15.41;57.24;95942.36;1718338;83;21210;-55
2021/04/30 06:22:06;;;;;;;2.75;1.82;;;;;;;15.34;57.61;95952.62;1723014;81;21052;-56
2021/04/30 06:24:35;;;;;;;3.08;2.02;;;;;;;15.28;57.88;95940.19;1729735;81;21412;-54
2021/04/30 06:27:05;;;;;;;2.22;1.80;;;;;;;15.24;57.68;95955.33;1729980;81;21076;-54
2021/04/30 06:29:33;;;;;;;3.15;1.50;;;;;;;15.21;57.79;95945.20;1703428;83;21560;-55
2021/04/30 06:32:01;;;;;;;5.25;1.40;;;;;;;15.18;57.58;95957.27;1729863;82;21139;-55
2021/04/30 06:34:31;;;;;;;4.10;1.45;;;;;;;15.16;57.82;95949.23;1729499;81;21080;-55
2021/04/30 06:36:59;;;;;;;1.57;1.20;;;;;;;15.14;58.06;95950.69;1729760;83;21391;-55
2021/04/30 06:39:27;;;;;;;1.60;1.20;;;;;;;15.13;58.16;95955.59;1728099;83;21083;-54
2021/04/30 06:41:56;;;;;;;4.75;1.47;;;;;;;15.13;58.10;95959.98;1700283;83;21496;-57
2021/04/30 06:44:25;;;;;;;3.72;1.60;;;;;;;15.14;58.06;95947.27;1668538;83;21103;-55
2021/04/30 06:46:54;;;;;;;1.52;1.30;;;;;;;15.13;58.18;95965.20;1700710;83;21104;-56
2021/04/30 06:49:22;;;;;;;1.30;1.10;;;;;;;15.11;58.19;95962.75;1680116;83;21216;-55
2021/04/30 06:51:52;;;;;;;3.42;1.40;;;;;;;15.09;58.00;95953.75;1700514;84;21144;-55
2021/04/30 06:54:20;;;;;;;2.85;1.30;;;;;;;15.08;58.10;95961.27;1700685;84;21167;-55
2021/04/30 06:56:48;;;;;;;1.87;1.32;;;;;;;15.11;58.09;95964.55;1690262;85;21063;-56
2021/04/30 06:59:17;;;;;;;2.02;1.50;;;;;;;15.12;58.06;95971.42;1702640;83;21485;-56
2021/04/30 07:01:46;;;;;;;1.20;1.10;;;;;;;15.13;58.13;95961.29;1729809;81;21416;-55
2021/04/30 07:04:18;;;;;;;5.37;2.90;;;;;;;15.12;58.04;95968.31;1727164;81;21096;-55
2021/04/30 07:06:47;;;;;;;1.70;1.25;;;;;;;15.16;58.39;95973.56;1700521;83;21492;-55
2021/04/30 07:09:15;;;;;;;1.10;0.90;;;;;;;15.24;57.74;95976.73;1701819;83;21091;-55
2021/04/30 07:11:45;;;;;;;1.17;0.90;;;;;;;15.28;57.63;95977.59;1729756;83;21155;-55
2021/04/30 07:14:13;;;;;;;0.80;0.80;;;;;;;15.34;57.74;95981.86;1729822;83;21524;-55
2021/04/30 07:16:41;;;;;;;2.55;1.00;;;;;;;15.41;57.59;95990.72;1729651;83;21567;-56
2021/04/30 07:19:12;;;;;;;1.25;1.15;;;;;;;15.48;57.53;96000.92;1728845;81;21100;-56
2021/04/30 07:21:43;;;;;;;3.02;1.22;;;;;;;15.54;57.66;95999.02;1677571;84;21711;-56
2021/04/30 07:24:11;;;;;;;1.42;1.10;;;;;;;15.61;57.38;96002.64;1701654;83;21191;-56
2021/04/30 07:26:40;;;;;;;1.22;1.10;;;;;;;15.68;57.19;96002.03;1693352;84;21384;-55
2021/04/30 07:29:07;;;;;;;1.20;1.02;;;;;;;15.73;56.60;96009.73;1701254;84;21071;-57
2021/04/30 07:31:36;;;;;;;3.25;2.37;;;;;;;15.77;56.37;96012.42;1701542;83;21523;-55
2021/04/30 07:34:07;;;;;;;1.40;1.30;;;;;;;15.79;56.60;96007.03;1690738;83;21540;-56
2021/04/30 07:36:36;;;;;;;1.12;1.02;;;;;;;15.81;56.25;96014.23;1730681;83;21079;-56
2021/04/30 07:39:06;;;;;;;1.12;1.02;;;;;;;15.81;56.22;96014.23;1722137;82;22212;-56
2021/04/30 07:41:35;;;;;;;1.42;1.07;;;;;;;15.80;56.11;96022.55;1701462;83;21087;-54
2021/04/30 07:44:05;;;;;;;1.10;1.00;;;;;;;15.75;56.29;96017.42;1693278;83;21059;-55
2021/04/30 07:46:33;;;;;;;2.55;1.20;;;;;;;15.74;56.51;96021.84;1692779;84;21139;-55
2021/04/30 07:49:03;;;;;;;4.78;1.12;;;;;;;15.70;56.45;96023.11;1723834;82;21570;-56
2021/04/30 07:51:33;;;;;;;1.55;1.30;;;;;;;15.67;56.62;96024.72;1730304;81;21578;-56
2021/04/30 07:54:03;;;;;;;4.67;1.20;;;;;;;15.69;56.70;96026.72;1753651;80;21158;-56
2021/04/30 07:56:31;;;;;;;1.62;1.52;;;;;;;15.70;56.92;96017.08;1753777;81;21582;-54
2021/04/30 07:59:01;;;;;;;2.12;1.22;;;;;;;15.73;57.01;96018.89;1701424;82;21150;-55
2021/04/30 08:01:30;;;;;;;2.80;1.30;;;;;;;15.77;56.92;96024.66;1707668;81;21627;-55
2021/04/30 08:03:58;;;;;;;;;;;;;;;15.81;56.88;96023.39;1706359;83;21379;-56
2021/04/30 08:06:26;;;;;;;1.72;1.20;;;;;;;15.85;56.79;96025.20;1694096;83;20509;-55
2021/04/30 08:08:53;;;;;;;2.62;1.10;;;;;;;15.88;56.38;96014.43;1701585;84;21142;-56
2021/04/30 08:11:21;;;;;;;1.47;1.17;;;;;;;15.94;56.36;96029.52;1701698;84;21160;-55
2021/04/30 08:13:50;;;;;;;2.00;1.45;;;;;;;16.01;56.22;96014.83;1715725;83;21139;-56
2021/04/30 08:16:18;;;;;;;2.45;1.62;;;;;;;16.15;56.30;96020.78;1710179;82;21316;-55
2021/04/30 08:18:46;;;;;;;1.90;1.22;;;;;;;16.33;55.75;96019.86;1722090;82;21091;-55
2021/04/30 08:21:14;;;;;;;1.27;1.10;;;;;;;16.53;55.21;96016.51;1704895;82;21080;-54
2021/04/30 08:23:42;;;;;;;1.12;1.12;;;;;;;16.74;54.03;96002.48;1701512;83;21115;-55
2021/04/30 08:26:10;;;;;;;1.55;1.25;;;;;;;16.92;53.81;96003.69;1693234;84;21135;-55
2021/04/30 08:28:38;;;;;;;2.08;1.20;;;;;;;17.15;53.68;96010.08;1701423;84;21391;-55
2021/04/30 08:31:07;;;;;;;2.10;1.20;;;;;;;17.47;53.30;96010.56;1684382;83;21123;-55
2021/04/30 08:33:35;;;;;;;4.20;1.60;;;;;;;17.79;51.77;96007.55;1701374;82;26911;-55
2021/04/30 08:36:04;;;;;;;4.75;1.10;;;;;;;18.00;50.68;96015.73;1730659;83;21139;-55
2021/04/30 08:38:32;;;;;;;3.70;1.57;;;;;;;18.13;51.03;96007.33;1722117;83;21147;-55
2021/04/30 08:41:01;;;;;;;2.35;1.10;;;;;;;18.35;50.38;96003.62;1728648;83;21430;-54
2021/04/30 08:43:29;;;;;;;2.35;1.37;;;;;;;18.48;49.64;96003.88;1721951;83;21187;-55
2021/04/30 08:45:59;;;;;;;6.00;1.42;;;;;;;18.56;49.67;96010.91;1730704;83;21147;-55
2021/04/30 08:48:28;;;;;;;1.90;1.10;;;;;;;18.78;49.63;95996.67;1722431;83;21084;-55
2021/04/30 08:50:57;;;;;;;5.67;1.60;;;;;;;19.04;48.26;96001.11;1708294;83;21056;-55
2021/04/30 08:53:26;;;;;;;3.05;1.72;;;;;;;19.18;48.14;95994.77;1701595;84;21210;-55
2021/04/30 08:55:54;;;;;;;3.02;1.30;;;;;;;19.27;47.91;95998.47;1693506;84;21591;-55
2021/04/30 08:58:28;;;;;;;2.87;1.35;;;;;;;19.29;47.85;95994.34;1701690;84;21147;-55
2021/04/30 09:00:57;;;;;;;2.50;1.50;;;;;;;19.35;47.77;95996.78;1681558;83;21078;-56
2021/04/30 09:03:25;;;;;;;5.47;1.30;;;;;;;19.29;47.46;96000.92;1703898;83;27119;-55
2021/04/30 09:05:56;;;;;;;2.03;1.50;;;;;;;19.20;47.51;95993.61;1730384;83;21315;-55
2021/04/30 09:08:28;;;;;;;2.42;1.07;;;;;;;19.16;47.94;95987.08;1722198;82;21099;-56
2021/04/30 09:11:01;;;;;;;1.35;1.25;;;;;;;19.23;47.85;95991.94;1687373;84;21170;-55
2021/04/30 09:13:31;;;;;;;2.10;1.20;;;;;;;19.33;47.73;95990.89;1701621;83;21277;-54
2021/04/30 09:16:06;;;;;;;2.90;1.30;;;;;;;19.44;47.70;95969.39;1693351;83;21430;-54
2021/04/30 09:18:41;;;;;;;2.92;1.30;;;;;;;19.53;47.49;95976.72;1654047;84;21272;-56
2021/04/30 09:21:12;;;;;;;1.82;1.52;;;;;;;19.62;47.29;95987.47;1700765;83;21183;-54
2021/04/30 09:23:43;;;;;;;2.85;1.30;;;;;;;19.58;46.67;95989.65;1727341;82;21559;-54
2021/04/30 09:26:33;;;;;;;2.45;1.10;;;;;;;19.39;47.40;95994.10;1722292;83;21063;-55
2021/04/30 09:29:08;;;;;;;1.57;1.00;;;;;;;19.22;47.64;96003.44;1730828;83;21135;-55
2021/04/30 09:31:44;;;;;;;1.25;1.00;;;;;;;19.10;47.78;96006.18;1720020;83;22286;-55
2021/04/30 09:34:26;;;;;;;2.62;0.80;;;;;;;18.94;48.26;96005.28;1701278;84;21591;-55
2021/04/30 09:37:16;;;;;;;2.65;0.80;;;;;;;18.81;48.61;96008.15;1675425;84;21071;-54
2021/04/30 09:39:57;;;;;;;1.70;0.70;;;;;;;18.72;48.89;96023.16;1685145;84;21092;-55
2021/04/30 09:42:27;;;;;;;2.72;1.12;;;;;;;18.69;49.05;96020.88;1686701;84;21091;-56
2021/04/30 09:45:00;;;;;;;0.78;0.60;;;;;;;18.76;49.15;96021.80;1681997;84;21373;-56
2021/04/30 09:47:35;;;;;;;2.50;0.80;;;;;;;18.89;48.89;96016.83;1674028;84;21115;-55
2021/04/30 09:50:09;;;;;;;7.25;0.90;;;;;;;18.89;48.14;96016.83;1706743;81;21638;-55
2021/04/30 09:52:36;;;;;;;1.70;0.42;;;;;;;18.76;48.41;96019.17;1694493;84;21075;-55
2021/04/30 09:55:07;;;;;;;0.95;0.70;;;;;;;18.67;48.56;96026.80;1701729;84;21071;-55
2021/04/30 09:57:35;;;;;;;4.65;0.90;;;;;;;18.52;49.06;96021.43;1693378;84;21220;-54
2021/04/30 10:00:10;;;;;;;3.30;0.60;;;;;;;18.24;49.89;96011.88;1701779;84;21591;-55
2021/04/30 10:02:44;;;;;;;2.58;0.50;;;;;;;18.24;49.89;96011.88;1678735;83;21879;-56
2021/04/30 10:07:57;;;;;;;2.15;0.80;;;;;;;17.88;50.81;96018.88;1873574;76;23263;-56
2021/04/30 10:10:26;;;;;;;1.33;0.73;;;;;;;17.72;50.90;96039.39;1841834;78;21053;-56
2021/04/30 10:12:57;;;;;;;7.70;1.02;;;;;;;17.60;51.29;96037.11;1780319;78;21477;-56
2021/04/30 10:15:25;;;;;;;0.68;0.60;;;;;;;17.52;51.83;96037.11;1779353;79;20979;-55
2021/04/30 10:17:58;;;;;;;;;;;;;;;17.52;52.04;96035.80;1811299;79;21066;-55
2021/04/30 10:20:25;;;;;;;1.70;1.57;;;;;;;17.42;52.37;96033.34;1809572;78;20225;-55
2021/04/30 10:22:57;;;;;;;3.42;1.47;;;;;;;17.28;52.97;96033.50;1808481;79;21047;-55
2021/04/30 10:25:24;;;;;;;1.12;1.02;;;;;;;17.17;53.32;96046.95;1808507;78;21858;-55
2021/04/30 10:27:54;;;;;;;1.85;1.32;;;;;;;17.13;53.48;96043.00;1784356;78;21602;-55
2021/04/30 10:30:38;;;;;;;2.50;2.10;;;;;;;17.10;53.70;96044.16;1840577;78;21020;-55
2021/04/30 10:33:28;;;;;;;3.58;1.80;;;;;;;17.08;53.73;96035.62;1841563;78;21039;-55
2021/04/30 10:36:20;;;;;;;2.02;1.52;;;;;;;17.11;53.93;96038.42;1841237;77;21118;-55
2021/04/30 10:38:50;;;;;;;3.35;1.55;;;;;;;17.19;53.72;96038.42;1828627;78;21350;-56
2021/04/30 10:41:41;;;;;;;4.35;2.65;;;;;;;17.31;53.83;96043.35;1737837;80;21089;-55
2021/04/30 10:44:32;;;;;;;1.35;1.22;;;;;;;17.40;53.63;96044.50;1752190;82;21263;-56
2021/04/30 10:47:24;;;;;;;2.65;1.85;;;;;;;17.56;53.66;96047.59;1790791;78;27905;-55
2021/04/30 10:50:19;;;;;;;2.77;1.75;;;;;;;17.61;53.21;96048.41;1810821;79;21612;-56
2021/04/30 10:52:56;;;;;;;4.37;1.50;;;;;;;17.74;53.47;96050.53;1781616;79;21373;-56
2021/04/30 10:58:42;;;;;;;1.80;1.32;;;;;;;17.90;52.47;96054.47;1783201;78;21045;-55
2021/04/30 11:01:38;;;;;;;3.83;1.40;;;;;;;17.97;52.24;96050.19;1754232;80;21156;-55
2021/04/30 11:04:23;;;;;;;1.40;1.20;;;;;;;18.05;51.90;96054.60;1730542;79;20998;-55
2021/04/30 11:07:15;;;;;;;2.62;1.20;;;;;;;18.09;51.96;96044.11;1779942;80;21064;-55
2021/04/30 11:09:50;;;;;;;1.80;1.05;;;;;;;18.17;51.93;96051.13;1751617;80;21069;-55
2021/04/30 11:15:25;;;;;;;3.47;1.40;;;;;;;18.39;50.86;96054.33;1732891;80;26519;-56
2021/04/30 11:18:04;;;;;;;2.40;1.00;;;;;;;18.21;51.25;96056.38;1655062;85;21220;-55
2021/04/30 11:20:57;;;;;;;0.95;0.93;;;;;;;18.18;51.29;96040.45;1680027;84;22293;-55
2021/04/30 11:23:53;;;;;;;1.35;0.90;;;;;;;18.19;51.37;96053.08;1664895;85;21200;-58
2021/04/30 11:26:35;;;;;;;2.40;1.22;;;;;;;18.07;51.41;96059.19;1685200;84;21095;-56
2021/04/30 11:29:09;;;;;;;0.78;0.78;;;;;;;17.97;51.88;96051.50;1684283;85;21596;-55
2021/04/30 11:31:48;;;;;;;0.82;0.82;;;;;;;17.97;51.76;96052.81;1685232;83;21068;-58
2021/04/30 11:34:20;;;;;;;1.40;0.90;;;;;;;17.98;51.58;96050.52;1696003;83;21196;-56
2021/04/30 11:36:55;;;;;;;2.05;0.80;;;;;;;18.10;51.73;96047.04;1663432;84;21546;-55
2021/04/30 11:39:33;;;;;;;1.20;1.12;;;;;;;18.21;51.39;96048.50;1700955;83;21619;-55
2021/04/30 11:42:12;;;;;;;1.65;0.82;;;;;;;18.33;50.75;96045.81;1713336;83;21189;-55
2021/04/30 11:44:42;;;;;;;1.37;1.10;;;;;;;18.45;50.75;96052.81;1712894;83;21165;-55
2021/04/30 11:47:15;;;;;;;1.12;0.90;;;;;;;18.66;49.79;96031.72;1695856;83;21354;-57
2021/04/30 11:49:53;;;;;;;4.40;1.10;;;;;;;18.72;49.53;96039.73;1705512;83;21192;-56
2021/04/30 11:52:29;;;;;;;1.30;1.00;;;;;;;18.73;49.82;96045.80;1680950;83;21604;-55
2021/04/30 11:55:05;;;;;;;2.25;1.10;;;;;;;18.72;49.21;96015.27;1714107;82;21482;-55
2021/04/30 11:57:33;;;;;;;4.42;1.10;;;;;;;18.54;49.98;96053.63;1714791;83;21580;-56
2021/04/30 12:00:14;;;;;;;2.92;1.17;;;;;;;18.48;50.40;96050.36;1714438;82;21430;-56
2021/04/30 12:05:41;;;;;;;4.58;1.30;;;;;;;18.27;50.62;96051.73;1873391;75;23236;-55